createdAt,value
2019-03-18T00:02:11.420Z,8.70
2019-03-18T00:04:37.818Z,8.85
2019-03-18T00:07:04.152Z,8.08
2019-03-18T00:09:30.542Z,7.60
2019-03-18T00:11:56.985Z,9.58
2019-03-18T00:14:23.381Z,8.70
2019-03-18T00:16:49.846Z,8.93
2019-03-18T00:19:16.314Z,8.65
2019-03-18T00:21:42.795Z,8.15
2019-03-18T00:24:23.142Z,8.43
2019-03-18T00:26:49.596Z,8.78
2019-03-18T00:29:15.996Z,7.92
2019-03-18T00:31:42.484Z,8.65
2019-03-18T00:34:08.957Z,9.10
2019-03-18T00:36:36.528Z,8.53
2019-03-18T00:39:05.891Z,7.12
2019-03-18T00:41:32.360Z,8.28
2019-03-18T00:44:18.801Z,8.45
2019-03-18T00:46:45.265Z,9.58
2019-03-18T00:49:11.689Z,8.43
2019-03-18T00:51:38.096Z,8.73
2019-03-18T00:54:05.674Z,8.50
2019-03-18T00:56:33.688Z,9.13
2019-03-18T00:59:00.098Z,8.55
2019-03-18T01:01:26.393Z,9.43
2019-03-18T01:03:52.837Z,9.60
2019-03-18T01:06:19.422Z,10.35
2019-03-18T01:08:45.740Z,10.38
2019-03-18T01:11:12.523Z,9.83
2019-03-18T01:13:38.839Z,10.13
2019-03-18T01:16:05.372Z,9.63
2019-03-18T01:18:31.704Z,9.60
2019-03-18T01:20:58.155Z,8.73
2019-03-18T01:23:24.673Z,9.08
2019-03-18T01:25:51.160Z,9.75
2019-03-18T01:28:17.567Z,9.43
2019-03-18T01:30:43.867Z,9.28
2019-03-18T01:33:10.381Z,9.30
2019-03-18T01:35:38.851Z,8.98
2019-03-18T01:38:05.097Z,9.13
2019-03-18T01:40:31.464Z,9.95
2019-03-18T01:42:57.766Z,9.33
2019-03-18T01:45:24.170Z,8.50
2019-03-18T01:47:50.704Z,11.10
2019-03-18T01:50:17.093Z,8.25
2019-03-18T01:52:43.532Z,8.78
2019-03-18T01:55:09.928Z,8.18
2019-03-18T01:57:36.463Z,9.35
2019-03-18T02:00:06.323Z,7.97
2019-03-18T02:02:32.804Z,8.50
2019-03-18T02:04:59.213Z,9.35
2019-03-18T02:07:25.608Z,8.78
2019-03-18T02:09:52.083Z,8.33
2019-03-18T02:12:18.558Z,9.55
2019-03-18T02:14:44.977Z,9.23
2019-03-18T02:17:11.449Z,9.05
2019-03-18T02:19:37.844Z,9.68
2019-03-18T02:22:04.255Z,9.13
2019-03-18T02:24:30.633Z,9.33
2019-03-18T02:26:57.205Z,9.23
2019-03-18T02:29:23.710Z,8.60
2019-03-18T02:31:50.150Z,9.38
2019-03-18T02:34:16.537Z,9.48
2019-03-18T02:36:42.998Z,9.90
2019-03-18T02:39:09.428Z,8.68
2019-03-18T02:41:35.745Z,8.50
2019-03-18T02:44:02.037Z,9.50
2019-03-18T02:46:28.542Z,9.00
2019-03-18T02:48:55.037Z,9.38
2019-03-18T02:51:22.672Z,9.28
2019-03-18T02:53:49.077Z,9.93
2019-03-18T02:56:15.493Z,9.53
2019-03-18T02:58:41.983Z,9.58
2019-03-18T03:01:08.395Z,9.35
2019-03-18T03:03:36.952Z,9.48
2019-03-18T03:06:03.129Z,10.93
2019-03-18T03:08:29.534Z,10.15
2019-03-18T03:10:56.008Z,10.63
2019-03-18T03:13:22.437Z,11.28
2019-03-18T03:15:48.933Z,10.60
2019-03-18T03:18:15.444Z,10.50
2019-03-18T03:20:42.235Z,11.08
2019-03-18T03:23:08.663Z,10.35
2019-03-18T03:25:35.058Z,11.00
2019-03-18T03:28:01.360Z,10.48
2019-03-18T03:30:47.599Z,10.03
2019-03-18T03:33:14.050Z,11.25
2019-03-18T03:35:40.496Z,12.15
2019-03-18T03:38:07.314Z,11.28
2019-03-18T03:40:33.769Z,11.03
2019-03-18T03:43:00.359Z,13.13
2019-03-18T03:45:26.790Z,14.18
2019-03-18T03:47:53.353Z,15.72
2019-03-18T03:50:19.773Z,15.23
2019-03-18T03:52:46.261Z,16.30
2019-03-18T03:55:13.092Z,16.87
2019-03-18T03:57:39.502Z,14.35
2019-03-18T04:00:09.613Z,16.05
2019-03-18T04:02:37.212Z,15.72
2019-03-18T04:05:04.838Z,15.45
2019-03-18T04:07:31.268Z,15.53
2019-03-18T04:09:57.619Z,16.20
2019-03-18T04:12:24.061Z,17.45
2019-03-18T04:14:50.490Z,16.87
2019-03-18T04:17:16.935Z,17.48
2019-03-18T04:19:43.428Z,17.60
2019-03-18T04:22:09.809Z,16.87
2019-03-18T04:24:36.195Z,17.00
2019-03-18T04:27:02.671Z,17.98
2019-03-18T04:29:29.055Z,15.70
2019-03-18T04:31:55.384Z,17.17
2019-03-18T04:34:21.861Z,16.48
2019-03-18T04:36:48.251Z,15.53
2019-03-18T04:39:15.066Z,15.58
2019-03-18T04:41:41.567Z,16.65
2019-03-18T04:44:07.956Z,15.70
2019-03-18T04:46:34.306Z,15.25
2019-03-18T04:49:00.699Z,14.60
2019-03-18T04:51:27.038Z,14.58
2019-03-18T04:53:53.462Z,14.15
2019-03-18T04:56:19.867Z,13.15
2019-03-18T04:58:46.414Z,13.88
2019-03-18T05:01:12.901Z,13.53
2019-03-18T05:03:39.318Z,14.85
2019-03-18T05:06:05.672Z,14.93
2019-03-18T05:08:32.099Z,14.80
2019-03-18T05:10:58.599Z,15.30
2019-03-18T05:13:26.628Z,14.80
2019-03-18T05:15:54.316Z,14.28
2019-03-18T05:18:21.053Z,15.55
2019-03-18T05:20:47.508Z,15.65
2019-03-18T05:23:13.995Z,15.20
2019-03-18T05:25:40.447Z,15.48
2019-03-18T05:28:06.977Z,16.30
2019-03-18T05:30:33.480Z,14.87
2019-03-18T05:32:59.986Z,15.65
2019-03-18T05:35:26.650Z,15.13
2019-03-18T05:37:53.413Z,13.00
2019-03-18T05:40:20.457Z,5.28
2019-03-18T05:42:46.985Z,3.72
2019-03-18T05:45:13.434Z,2.95
2019-03-18T05:47:40.152Z,2.08
2019-03-18T05:50:09.682Z,2.20
2019-03-18T05:52:36.096Z,0.50
2019-03-18T05:55:03.486Z,0.20
2019-03-18T05:57:29.908Z,0.40
2019-03-18T05:59:56.312Z,0.70
2019-03-18T06:02:22.775Z,0.70
2019-03-18T06:04:49.324Z,0.93
2019-03-18T06:07:15.832Z,0.90
2019-03-18T06:09:42.412Z,0.93
2019-03-18T06:12:08.948Z,0.78
2019-03-18T06:14:35.381Z,0.70
2019-03-18T06:17:01.714Z,0.40
2019-03-18T06:19:28.149Z,0.40
2019-03-18T06:21:54.669Z,0.50
2019-03-18T06:24:21.214Z,0.30
2019-03-18T06:27:07.536Z,0.47
2019-03-18T06:29:34.041Z,0.82
2019-03-18T06:32:00.573Z,2.27
2019-03-18T06:34:27.401Z,2.77
2019-03-18T06:36:54.480Z,3.10
2019-03-18T06:39:20.855Z,3.10
2019-03-18T06:41:48.173Z,1.50
2019-03-18T06:44:14.517Z,1.45
2019-03-18T06:46:40.950Z,1.52
2019-03-18T06:49:20.245Z,1.52
2019-03-18T06:51:46.827Z,7.20
2019-03-18T06:54:13.314Z,1.95
2019-03-18T06:56:39.747Z,3.12
2019-03-18T06:59:06.091Z,3.47
2019-03-18T07:01:32.540Z,0.55
2019-03-18T07:03:58.900Z,0.53
2019-03-18T07:06:25.367Z,1.22
2019-03-18T07:08:51.757Z,0.80
2019-03-18T07:11:18.124Z,1.05
2019-03-18T07:13:44.610Z,1.30
2019-03-18T07:16:11.052Z,0.90
2019-03-18T07:18:37.725Z,1.00
2019-03-18T07:21:04.178Z,0.80
2019-03-18T07:23:30.609Z,1.00
2019-03-18T07:25:57.084Z,9.28
2019-03-18T07:28:23.491Z,4.85
2019-03-18T07:30:49.956Z,2.30
2019-03-18T07:33:16.551Z,2.80
2019-03-18T07:35:42.938Z,0.75
2019-03-18T07:38:09.346Z,1.10
2019-03-18T07:40:35.798Z,0.70
2019-03-18T07:43:02.167Z,0.90
2019-03-18T07:45:28.635Z,1.27
2019-03-18T07:47:55.221Z,1.35
2019-03-18T07:50:21.659Z,1.45
2019-03-18T07:52:49.426Z,1.90
2019-03-18T07:55:15.929Z,1.20
2019-03-18T07:57:42.363Z,1.32
2019-03-18T08:00:13.112Z,1.62
2019-03-18T08:02:39.604Z,1.52
2019-03-18T08:05:08.213Z,3.05
2019-03-18T08:07:34.717Z,4.22
2019-03-18T08:10:01.204Z,2.52
2019-03-18T08:12:27.720Z,2.77
2019-03-18T08:14:54.035Z,2.67
2019-03-18T08:17:20.518Z,3.12
2019-03-18T08:19:46.923Z,3.87
2019-03-18T08:22:13.250Z,4.35
2019-03-18T08:24:39.635Z,3.33
2019-03-18T08:27:06.092Z,4.10
2019-03-18T08:29:32.491Z,3.40
2019-03-18T08:31:59.202Z,3.50
2019-03-18T08:34:25.715Z,3.50
2019-03-18T08:36:52.234Z,4.15
2019-03-18T08:39:18.630Z,3.35
2019-03-18T08:41:45.129Z,4.05
2019-03-18T08:44:12.089Z,4.05
2019-03-18T08:46:38.598Z,4.53
2019-03-18T08:49:05.010Z,4.55
2019-03-18T08:51:31.433Z,4.12
2019-03-18T08:53:58.019Z,4.05
2019-03-18T08:56:24.551Z,4.12
2019-03-18T08:58:50.966Z,3.75
2019-03-18T09:01:17.355Z,3.45
2019-03-18T09:03:43.840Z,2.90
2019-03-18T09:06:10.278Z,3.25
2019-03-18T09:08:37.894Z,4.25
2019-03-18T09:11:04.391Z,4.08
2019-03-18T09:13:32.060Z,5.00
2019-03-18T09:15:58.709Z,4.62
2019-03-18T09:18:25.076Z,4.30
2019-03-18T09:20:51.572Z,4.85
2019-03-18T09:23:17.981Z,5.70
2019-03-18T09:25:44.340Z,5.35
2019-03-18T09:28:10.743Z,4.97
2019-03-18T09:30:37.070Z,4.97
2019-03-18T09:33:03.525Z,5.53
2019-03-18T09:35:29.981Z,6.42
2019-03-18T09:37:56.424Z,62.70
2019-03-18T09:40:22.934Z,22.35
2019-03-18T09:42:49.266Z,41.68
2019-03-18T09:45:16.803Z,22.30
2019-03-18T09:47:43.249Z,19.10
2019-03-18T09:50:10.515Z,19.98
2019-03-18T09:52:37.055Z,19.55
2019-03-18T09:55:07.534Z,18.42
2019-03-18T09:57:33.963Z,16.82
2019-03-18T10:00:00.431Z,15.65
2019-03-18T10:02:26.864Z,11.68
2019-03-18T10:04:53.364Z,10.35
2019-03-18T10:07:19.799Z,7.50
2019-03-18T10:09:46.087Z,4.28
2019-03-18T10:12:12.531Z,3.17
2019-03-18T10:14:40.071Z,3.00
2019-03-18T10:17:17.546Z,3.25
2019-03-18T10:19:43.931Z,2.90
2019-03-18T10:22:10.273Z,3.30
2019-03-18T10:24:36.671Z,3.33
2019-03-18T10:27:02.984Z,3.02
2019-03-18T10:29:29.420Z,3.40
2019-03-18T10:32:06.658Z,3.50
2019-03-18T10:34:33.061Z,3.02
2019-03-18T10:36:59.356Z,2.80
2019-03-18T10:39:25.840Z,2.40
2019-03-18T10:41:52.309Z,2.80
2019-03-18T10:44:18.785Z,3.05
2019-03-18T10:46:45.462Z,2.85
2019-03-18T10:49:11.975Z,3.08
2019-03-18T10:51:38.479Z,2.05
2019-03-18T10:54:04.935Z,2.40
2019-03-18T10:56:31.353Z,2.45
2019-03-18T10:58:57.821Z,3.12
2019-03-18T11:01:24.283Z,2.72
2019-03-18T11:03:50.662Z,2.58
2019-03-18T11:06:17.039Z,2.27
2019-03-18T11:08:43.480Z,2.80
2019-03-18T11:11:09.896Z,2.35
2019-03-18T11:13:36.259Z,2.58
2019-03-18T11:16:02.723Z,2.70
2019-03-18T11:18:29.174Z,2.47
2019-03-18T11:20:55.636Z,2.50
2019-03-18T11:23:22.114Z,2.33
2019-03-18T11:25:48.526Z,2.65
2019-03-18T11:28:14.948Z,6.90
2019-03-18T11:30:41.247Z,6.55
2019-03-18T11:33:07.653Z,3.37
2019-03-18T11:35:34.068Z,2.50
2019-03-18T11:38:00.454Z,2.37
2019-03-18T11:40:39.970Z,2.30
2019-03-18T11:43:06.554Z,2.00
2019-03-18T11:45:33.065Z,1.70
2019-03-18T11:47:59.536Z,1.85
2019-03-18T11:50:25.973Z,1.60
2019-03-18T11:52:52.468Z,1.87
2019-03-18T11:55:25.836Z,1.77
2019-03-18T11:57:52.301Z,2.30
2019-03-18T12:00:22.885Z,2.10
2019-03-18T12:02:49.315Z,2.30
2019-03-18T12:05:23.328Z,2.17
2019-03-18T12:07:49.794Z,2.50
2019-03-18T12:10:17.360Z,2.70
2019-03-18T12:12:43.817Z,2.10
2019-03-18T12:15:13.631Z,2.00
2019-03-18T12:17:40.059Z,2.00
2019-03-18T12:20:09.307Z,5.58
2019-03-18T12:22:35.809Z,2.02
2019-03-18T12:25:03.899Z,2.17
2019-03-18T12:27:30.338Z,2.25
2019-03-18T12:29:56.934Z,2.17
2019-03-18T12:32:24.559Z,2.00
2019-03-18T12:34:50.942Z,2.00
2019-03-18T12:37:17.404Z,2.33
2019-03-18T12:39:43.876Z,1.67
2019-03-18T12:42:10.329Z,1.90
2019-03-18T12:44:36.723Z,1.60
2019-03-18T12:47:03.021Z,1.77
2019-03-18T12:49:30.191Z,2.37
2019-03-18T12:51:56.543Z,2.33
2019-03-18T12:54:23.028Z,2.52
2019-03-18T12:56:49.486Z,2.67
2019-03-18T12:59:16.870Z,2.08
2019-03-18T13:01:43.366Z,2.25
2019-03-18T13:04:09.807Z,2.10
2019-03-18T13:06:36.385Z,2.40
2019-03-18T13:09:05.470Z,2.37
2019-03-18T13:11:31.999Z,2.02
2019-03-18T13:13:58.449Z,2.37
2019-03-18T13:16:24.895Z,2.25
2019-03-18T13:18:51.382Z,2.12
2019-03-18T13:21:17.884Z,1.90
2019-03-18T13:23:44.354Z,2.55
2019-03-18T13:26:10.791Z,2.12
2019-03-18T13:28:37.254Z,9.65
2019-03-18T13:31:03.707Z,4.60
2019-03-18T13:33:30.137Z,2.15
2019-03-18T13:35:56.614Z,2.20
2019-03-18T13:38:23.263Z,1.87
2019-03-18T13:40:49.693Z,2.45
2019-03-18T13:43:16.102Z,2.60
2019-03-18T13:45:54.366Z,2.10
2019-03-18T13:48:10.795Z,2.42
2019-03-18T13:50:37.203Z,2.42
2019-03-18T13:53:03.643Z,2.22
2019-03-18T13:55:30.069Z,1.95
2019-03-18T13:57:57.187Z,2.30
2019-03-18T14:00:23.907Z,2.02
2019-03-18T14:02:50.292Z,1.95
2019-03-18T14:05:16.685Z,1.67
2019-03-18T14:07:43.518Z,2.08
2019-03-18T14:10:19.927Z,1.82
2019-03-18T14:12:46.375Z,1.80
2019-03-18T14:15:14.835Z,1.50
2019-03-18T14:17:41.398Z,1.90
2019-03-18T14:20:10.694Z,1.57
2019-03-18T14:22:37.358Z,1.50
2019-03-18T14:25:05.317Z,1.00
2019-03-18T14:27:31.965Z,3.25
2019-03-18T14:29:59.319Z,1.57
2019-03-18T14:32:25.732Z,1.20
2019-03-18T14:34:52.198Z,1.05
2019-03-18T14:37:39.064Z,1.00
2019-03-18T14:40:12.749Z,0.98
2019-03-18T14:46:01.177Z,1.10
2019-03-18T14:48:27.597Z,1.00
2019-03-18T14:50:59.032Z,0.88
2019-03-18T14:53:25.364Z,1.00
2019-03-18T14:55:51.683Z,1.00
2019-03-18T14:58:18.077Z,1.00
2019-03-18T15:00:44.459Z,1.00
2019-03-18T15:03:10.858Z,1.20
2019-03-18T15:05:37.269Z,2.55
2019-03-18T15:08:03.706Z,1.47
2019-03-18T15:10:30.205Z,1.42
2019-03-18T15:12:56.544Z,1.50
2019-03-18T15:15:22.925Z,1.55
2019-03-18T15:17:49.447Z,1.17
2019-03-18T15:20:21.187Z,1.30
2019-03-18T15:22:59.133Z,1.50
2019-03-18T15:25:27.111Z,1.80
2019-03-18T15:27:53.955Z,1.75
2019-03-18T15:30:21.993Z,1.75
2019-03-18T15:32:50.257Z,1.77
2019-03-18T15:35:16.829Z,1.80
2019-03-18T15:37:43.424Z,2.02
2019-03-18T15:40:19.655Z,2.10
2019-03-18T15:42:46.115Z,2.75
2019-03-18T15:45:20.308Z,4.40
2019-03-18T15:47:46.711Z,2.70
2019-03-18T15:50:16.228Z,1.90
2019-03-18T15:52:43.629Z,1.60
2019-03-18T15:55:10.095Z,1.50
2019-03-18T15:57:36.547Z,1.52
2019-03-18T16:00:20.653Z,1.47
2019-03-18T16:02:47.079Z,1.50
2019-03-18T16:05:13.478Z,1.42
2019-03-18T16:07:39.810Z,1.10
2019-03-18T16:10:08.927Z,2.42
2019-03-18T16:12:35.367Z,2.60
2019-03-18T16:15:02.307Z,1.85
2019-03-18T16:17:28.809Z,1.75
2019-03-18T16:19:55.436Z,1.62
2019-03-18T16:22:23.827Z,1.70
2019-03-18T16:24:50.008Z,1.20
2019-03-18T16:27:16.451Z,1.30
2019-03-18T16:29:42.935Z,1.42
2019-03-18T16:32:11.685Z,2.08
2019-03-18T16:34:37.691Z,1.55
2019-03-18T16:37:04.115Z,1.32
2019-03-18T16:39:30.433Z,1.00
2019-03-18T16:41:56.958Z,1.50
2019-03-18T16:44:23.322Z,1.02
2019-03-18T16:46:49.769Z,1.50
2019-03-18T16:49:16.180Z,3.52
2019-03-18T16:51:42.453Z,4.03
2019-03-18T16:54:09.372Z,3.80
2019-03-18T16:56:37.003Z,3.15
2019-03-18T16:59:03.499Z,2.15
2019-03-18T17:01:30.083Z,1.52
2019-03-18T17:03:56.468Z,1.17
2019-03-18T17:06:22.976Z,1.60
2019-03-18T17:08:49.517Z,1.35
2019-03-18T17:11:15.948Z,1.55
2019-03-18T17:13:42.395Z,1.50
2019-03-18T17:16:08.820Z,1.20
2019-03-18T17:18:35.426Z,1.40
2019-03-18T17:21:01.865Z,1.45
2019-03-18T17:23:28.479Z,1.12
2019-03-18T17:25:55.081Z,1.15
2019-03-18T17:28:21.600Z,1.10
2019-03-18T17:30:48.259Z,0.93
2019-03-18T17:33:14.594Z,1.60
2019-03-18T17:35:41.128Z,1.30
2019-03-18T17:38:07.766Z,1.72
2019-03-18T17:40:34.255Z,3.90
2019-03-18T17:43:00.818Z,2.47
2019-03-18T17:45:27.600Z,1.40
2019-03-18T17:47:54.176Z,1.27
2019-03-18T17:50:28.246Z,1.10
2019-03-18T17:53:02.577Z,1.27
2019-03-18T17:55:22.919Z,1.67
2019-03-18T17:57:49.442Z,1.85
2019-03-18T18:00:18.483Z,1.50
2019-03-18T18:02:44.912Z,2.00
2019-03-18T18:05:11.276Z,2.10
2019-03-18T18:07:37.840Z,2.27
2019-03-18T18:10:08.378Z,2.55
2019-03-18T18:12:35.094Z,2.72
2019-03-18T18:15:02.494Z,2.85
2019-03-18T18:17:29.320Z,2.20
2019-03-18T18:19:55.910Z,2.22
2019-03-18T18:22:22.419Z,1.77
2019-03-18T18:24:49.004Z,2.37
2019-03-18T18:27:15.409Z,1.87
2019-03-18T18:29:42.003Z,1.92
2019-03-18T18:32:08.564Z,1.50
2019-03-18T18:34:34.915Z,2.30
2019-03-18T18:37:01.443Z,1.82
2019-03-18T18:39:28.287Z,1.60
2019-03-18T18:41:54.693Z,2.02
2019-03-18T18:44:21.030Z,1.87
2019-03-18T18:46:47.429Z,2.20
2019-03-18T18:49:13.901Z,1.82
2019-03-18T18:51:40.246Z,1.85
2019-03-18T18:54:06.767Z,1.40
2019-03-18T18:56:33.847Z,1.20
2019-03-18T18:59:00.232Z,1.20
2019-03-18T19:01:26.752Z,1.50
2019-03-18T19:03:56.640Z,1.77
2019-03-18T19:06:23.279Z,4.40
2019-03-18T19:08:50.756Z,5.45
2019-03-18T19:11:17.570Z,2.90
2019-03-18T19:13:43.936Z,5.22
2019-03-18T19:16:10.382Z,2.90
2019-03-18T19:18:38.268Z,3.75
2019-03-18T19:21:05.988Z,1.85
2019-03-18T19:23:37.611Z,2.10
2019-03-18T19:26:01.662Z,2.35
2019-03-18T19:28:28.275Z,2.20
2019-03-18T19:30:54.626Z,2.45
2019-03-18T19:33:21.315Z,2.37
2019-03-18T19:35:48.030Z,2.58
2019-03-18T19:38:14.664Z,2.05
2019-03-18T19:40:41.105Z,2.65
2019-03-18T19:43:07.443Z,3.70
2019-03-18T19:45:34.068Z,2.12
2019-03-18T19:48:00.496Z,1.47
2019-03-18T19:50:31.104Z,2.00
2019-03-18T19:52:57.564Z,1.70
2019-03-18T19:55:43.843Z,1.52
2019-03-18T19:58:10.471Z,1.47
2019-03-18T20:00:37.235Z,2.75
2019-03-18T20:03:03.858Z,1.80
2019-03-18T20:05:30.583Z,1.67
2019-03-18T20:07:56.962Z,1.65
2019-03-18T20:10:23.555Z,1.45
2019-03-18T20:12:51.276Z,1.32
2019-03-18T20:15:19.355Z,1.50
2019-03-18T20:17:45.786Z,2.37
2019-03-18T20:20:22.340Z,2.20
2019-03-18T20:22:48.762Z,1.92
2019-03-18T20:25:15.199Z,1.40
2019-03-18T20:27:41.584Z,1.65
2019-03-18T20:30:19.644Z,1.50
2019-03-18T20:32:46.140Z,4.12
2019-03-18T20:35:15.181Z,2.37
2019-03-18T20:37:43.057Z,2.65
2019-03-18T20:40:14.676Z,1.60
2019-03-18T20:42:41.157Z,2.00
2019-03-18T20:45:15.473Z,1.80
2019-03-18T20:47:42.102Z,1.65
2019-03-18T20:50:11.298Z,1.30
2019-03-18T20:52:37.966Z,1.50
2019-03-18T20:55:05.547Z,1.67
2019-03-18T20:57:32.085Z,2.02
2019-03-18T20:59:58.737Z,1.57
2019-03-18T21:02:25.344Z,1.45
2019-03-18T21:04:51.826Z,1.30
2019-03-18T21:07:18.294Z,1.80
2019-03-18T21:09:45.073Z,1.00
2019-03-18T21:12:12.049Z,1.62
2019-03-18T21:14:38.745Z,2.00
2019-03-18T21:17:05.342Z,1.40
2019-03-18T21:19:31.791Z,1.10
2019-03-18T21:22:21.733Z,1.35
2019-03-18T21:24:50.330Z,1.50
2019-03-18T21:27:16.830Z,1.50
2019-03-18T21:29:43.308Z,0.98
2019-03-18T21:34:02.106Z,1.22
2019-03-18T21:36:37.746Z,1.00
2019-03-18T21:38:57.496Z,1.10
2019-03-18T21:41:23.857Z,0.90
2019-03-18T21:43:51.544Z,0.75
2019-03-18T21:46:18.521Z,1.00
2019-03-18T21:48:44.995Z,1.00
2019-03-18T21:51:11.404Z,1.52
2019-03-18T21:53:37.966Z,1.70
2019-03-18T21:56:24.223Z,1.20
2019-03-18T21:58:51.718Z,1.20
2019-03-18T22:01:20.115Z,2.20
2019-03-18T22:03:49.519Z,1.70
2019-03-18T22:06:15.937Z,2.08
2019-03-18T22:08:42.497Z,2.30
2019-03-18T22:11:09.032Z,3.87
2019-03-18T22:13:35.546Z,2.35
2019-03-18T22:16:03.942Z,1.80
2019-03-18T22:18:30.400Z,1.62
2019-03-18T22:20:56.887Z,1.47
2019-03-18T22:23:23.337Z,1.57
2019-03-18T22:25:49.806Z,1.55
2019-03-18T22:28:16.443Z,1.60
2019-03-18T22:30:42.797Z,1.87
2019-03-18T22:33:09.320Z,1.47
2019-03-18T22:35:36.152Z,1.40
2019-03-18T22:38:22.397Z,1.90
2019-03-18T22:40:48.936Z,1.70
2019-03-18T22:43:15.380Z,2.00
2019-03-18T22:45:41.902Z,1.50
2019-03-18T22:48:08.485Z,1.82
2019-03-18T22:50:34.840Z,3.10
2019-03-18T22:53:01.336Z,2.10
2019-03-18T22:55:27.732Z,2.00
2019-03-18T22:58:07.207Z,2.47
2019-03-18T23:00:48.021Z,2.75
2019-03-18T23:03:14.506Z,3.02
2019-03-18T23:05:41.167Z,2.02
2019-03-18T23:08:20.809Z,2.42
2019-03-18T23:10:47.118Z,2.35
2019-03-18T23:13:13.702Z,2.42
2019-03-18T23:15:42.030Z,2.42
2019-03-18T23:18:08.326Z,2.60
2019-03-18T23:20:34.779Z,3.15
2019-03-18T23:23:01.290Z,2.72
2019-03-18T23:25:28.445Z,3.10
2019-03-18T23:27:54.952Z,3.05
2019-03-18T23:30:21.395Z,2.90
2019-03-18T23:32:47.808Z,2.60
2019-03-18T23:35:16.191Z,2.58
2019-03-18T23:37:42.705Z,2.47
2019-03-18T23:40:10.846Z,2.17
2019-03-18T23:42:37.261Z,2.42
2019-03-18T23:45:05.177Z,2.42
2019-03-18T23:47:31.726Z,2.83
2019-03-18T23:49:58.103Z,2.67
2019-03-18T23:52:24.583Z,2.27
2019-03-18T23:54:51.007Z,2.58
2019-03-18T23:57:17.460Z,2.58
2019-03-18T23:59:43.918Z,2.58
